Time;durP1;ratioP1;P1;durP2;ratioP2;P2;SDS_P1;SDS_P2;PMS_P1;PMS_P2;Temp;Humidity;BMP_temperature;BMP_pressure;BME280_temperature;BME280_humidity;BME280_pressure;Samples;Min_cycle;Max_cycle;Signal;HPM_P1;HPM_P2
2023/01/10 00:00:47;;;;;;;4.43;1.33;;;5.80;38.40;;;;;;5021677;28;20471;-70
2023/01/10 00:03:13;;;;;;;4.93;1.50;;;5.80;38.50;;;;;;5019864;28;20470;-70
2023/01/10 00:05:41;;;;;;;4.67;1.60;;;5.80;38.50;;;;;;5021184;28;20519;-69
2023/01/10 00:08:10;;;;;;;5.60;1.33;;;5.90;38.50;;;;;;5021912;28;20479;-70
2023/01/10 00:10:37;;;;;;;5.50;1.60;;;5.90;38.30;;;;;;5034375;28;20474;-69
2023/01/10 00:15:49;;;;;;;5.47;1.50;;;5.90;38.50;;;;;;5022971;28;20474;-72
2023/01/10 00:18:15;;;;;;;5.70;1.70;;;5.90;38.50;;;;;;5023489;28;21109;-70
2023/01/10 00:20:44;;;;;;;6.10;1.63;;;5.90;38.70;;;;;;5021517;28;20487;-69
2023/01/10 00:23:11;;;;;;;4.77;1.60;;;5.90;38.80;;;;;;5020971;28;20460;-69
2023/01/10 00:25:38;;;;;;;8.23;2.37;;;5.90;38.90;;;;;;5023300;28;20451;-69
2023/01/10 00:28:10;;;;;;;6.47;1.80;;;5.90;39.00;;;;;;5023563;28;20471;-70
2023/01/10 00:30:38;;;;;;;4.30;1.63;;;5.90;39.10;;;;;;5019759;28;20476;-70
2023/01/10 00:33:06;;;;;;;4.97;1.87;;;5.90;39.30;;;;;;5020502;28;20546;-73
2023/01/10 00:35:33;;;;;;;6.53;2.37;;;5.90;39.00;;;;;;5023385;28;20467;-70
2023/01/10 00:38:04;;;;;;;5.57;2.40;;;5.80;39.10;;;;;;5020832;28;20463;-72
2023/01/10 00:40:31;;;;;;;4.53;1.70;;;5.80;39.20;;;;;;5023670;28;20480;-69
2023/01/10 00:45:41;;;;;;;5.27;1.70;;;5.80;38.60;;;;;;5006754;28;20585;-70
2023/01/10 00:48:08;;;;;;;5.10;1.87;;;5.70;38.60;;;;;;5026189;28;20482;-69
2023/01/10 00:50:34;;;;;;;6.77;2.27;;;5.70;38.80;;;;;;5022728;28;20516;-70
2023/01/10 00:53:02;;;;;;;4.87;2.17;;;5.60;38.90;;;;;;5024738;28;21152;-70
2023/01/10 00:55:29;;;;;;;7.23;2.23;;;5.60;39.10;;;;;;5027880;28;20954;-69
2023/01/10 00:57:56;;;;;;;6.83;2.23;;;5.50;39.30;;;;;;5028013;28;20459;-72
2023/01/10 01:00:23;;;;;;;5.87;2.43;;;5.50;39.50;;;;;;5024911;28;20522;-70
2023/01/10 01:02:51;;;;;;;5.33;1.90;;;5.40;39.70;;;;;;5024944;28;20462;-70
2023/01/10 01:05:18;;;;;;;5.30;2.80;;;5.30;39.80;;;;;;5027939;28;20516;-70
2023/01/10 01:07:47;;;;;;;4.83;2.30;;;5.30;40.20;;;;;;5026487;28;20479;-69
2023/01/10 01:10:28;;;;;;;5.93;2.70;;;5.20;40.40;;;;;;5028835;28;20851;-69
2023/01/10 01:12:57;;;;;;;8.67;3.00;;;5.20;40.70;;;;;;5025145;28;20461;-70
2023/01/10 01:15:24;;;;;;;5.97;2.57;;;5.10;41.00;;;;;;5024193;28;20481;-69
2023/01/10 01:17:50;;;;;;;6.83;2.90;;;5.10;41.40;;;;;;5026872;28;20457;-72
2023/01/10 01:20:18;;;;;;;7.33;3.20;;;5.10;41.60;;;;;;5025580;28;20482;-71
2023/01/10 01:22:46;;;;;;;8.00;3.93;;;5.10;41.80;;;;;;5027344;28;20505;-69
2023/01/10 01:25:13;;;;;;;11.27;3.30;;;5.10;42.00;;;;;;5029082;28;20481;-69
2023/01/10 01:27:41;;;;;;;9.30;3.73;;;5.10;42.10;;;;;;5027025;28;20475;-72
2023/01/10 01:30:09;;;;;;;6.30;2.77;;;5.10;42.30;;;;;;5028072;28;20479;-70
2023/01/10 01:32:36;;;;;;;7.53;3.47;;;5.00;43.00;;;;;;5025215;28;20482;-70
2023/01/10 01:35:04;;;;;;;9.47;3.53;;;5.10;42.60;;;;;;5026467;28;20464;-71
2023/01/10 01:37:31;;;;;;;6.37;2.80;;;5.00;42.50;;;;;;5028796;28;20489;-70
2023/01/10 01:39:57;;;;;;;6.90;3.07;;;5.00;42.60;;;;;;5023600;28;21003;-70
2023/01/10 01:42:26;;;;;;;6.97;3.33;;;5.00;42.70;;;;;;5026543;28;20466;-70
2023/01/10 01:45:27;;;;;;;5.80;3.03;;;5.00;42.80;;;;;;5027458;28;20596;-72
2023/01/10 01:47:58;;;;;;;7.53;3.00;;;4.90;43.00;;;;;;5023189;28;20483;-69
2023/01/10 01:50:28;;;;;;;5.43;2.50;;;4.90;43.00;;;;;;5021925;28;20478;-70
2023/01/10 01:52:58;;;;;;;6.57;2.90;;;4.90;43.30;;;;;;5026773;28;20468;-69
2023/01/10 01:55:27;;;;;;;6.47;3.30;;;4.90;43.50;;;;;;5021377;28;20830;-69
2023/01/10 01:57:55;;;;;;;7.10;3.50;;;5.00;43.40;;;;;;5023177;28;20456;-70
2023/01/10 02:00:22;;;;;;;5.80;2.70;;;5.00;43.50;;;;;;5026500;28;20491;-70
2023/01/10 02:02:52;;;;;;;7.10;3.00;;;5.00;43.50;;;;;;5026315;28;20461;-69
2023/01/10 02:05:22;;;;;;;5.30;2.80;;;5.00;43.50;;;;;;5026526;28;20520;-69
2023/01/10 02:07:52;;;;;;;5.90;3.10;;;5.00;43.50;;;;;;5026116;28;20454;-69
2023/01/10 02:10:24;;;;;;;5.37;3.33;;;5.00;43.70;;;;;;5028327;28;20486;-69
2023/01/10 02:12:53;;;;;;;6.47;3.20;;;5.00;43.70;;;;;;5020857;28;20517;-69
2023/01/10 02:15:20;;;;;;;6.60;4.20;;;5.10;43.70;;;;;;5025607;28;20459;-72
2023/01/10 02:17:52;;;;;;;7.60;3.20;;;5.10;43.50;;;;;;5021100;28;20464;-70
2023/01/10 02:20:22;;;;;;;6.77;3.70;;;5.20;43.60;;;;;;5025741;28;20493;-69
2023/01/10 02:23:27;;;;;;;7.00;3.73;;;5.20;43.50;;;;;;5026965;28;20455;-70
2023/01/10 02:26:18;;;;;;;6.17;3.57;;;5.20;43.40;;;;;;5025387;28;20454;-69
2023/01/10 02:29:10;;;;;;;5.77;3.10;;;5.30;43.40;;;;;;5025342;28;21025;-70
2023/01/10 02:34:36;;;;;;;8.17;3.03;;;5.30;43.40;;;;;;5070212;27;20564;-70
2023/01/10 02:37:10;;;;;;;6.50;2.90;;;5.30;43.30;;;;;;5053717;28;20476;-70
2023/01/10 02:39:48;;;;;;;5.53;2.70;;;5.30;43.00;;;;;;5058534;28;20459;-70
2023/01/10 02:42:24;;;;;;;5.40;3.00;;;5.30;43.00;;;;;;5056326;28;20461;-70
2023/01/10 02:44:58;;;;;;;4.90;2.30;;;5.30;42.90;;;;;;5047167;28;20464;-70
2023/01/10 02:47:24;;;;;;;5.90;2.63;;;5.30;42.90;;;;;;5052489;28;20991;-70
2023/01/10 02:49:52;;;;;;;5.57;2.67;;;5.30;42.80;;;;;;5050675;28;20949;-71
2023/01/10 02:52:22;;;;;;;5.57;2.30;;;5.40;42.70;;;;;;5047132;28;20484;-69
2023/01/10 02:54:51;;;;;;;5.10;2.30;;;5.30;42.60;;;;;;5048505;28;20466;-71
2023/01/10 02:57:43;;;;;;;5.40;2.60;;;5.40;42.40;;;;;;5047395;28;20488;-70
2023/01/10 03:02:52;;;;;;;4.50;1.90;;;5.40;42.10;;;;;;4984051;28;20966;-63
2023/01/10 03:05:34;;;;;;;5.43;2.50;;;5.40;42.10;;;;;;4977591;28;20473;-63
2023/01/10 03:08:09;;;;;;;5.40;1.97;;;5.30;42.10;;;;;;4977990;28;20851;-63
2023/01/10 03:10:42;;;;;;;3.90;1.40;;;5.30;41.90;;;;;;4980522;28;20483;-63
2023/01/10 03:13:14;;;;;;;4.60;1.23;;;5.30;42.70;;;;;;4981882;28;20488;-63
2023/01/10 03:15:42;;;;;;;4.00;1.20;;;5.30;41.90;;;;;;4980834;28;20818;-63
2023/01/10 03:18:14;;;;;;;4.23;1.20;;;5.30;41.80;;;;;;4980272;28;20476;-63
2023/01/10 03:20:44;;;;;;;7.10;1.10;;;5.30;41.70;;;;;;4984353;28;20539;-63
2023/01/10 03:23:14;;;;;;;3.90;1.20;;;5.20;41.60;;;;;;4981241;28;20460;-63
2023/01/10 03:25:43;;;;;;;4.10;1.07;;;5.20;41.50;;;;;;4975876;28;20456;-63
2023/01/10 03:28:14;;;;;;;3.70;0.90;;;5.10;41.60;;;;;;4979702;28;20465;-62
2023/01/10 03:30:44;;;;;;;4.30;1.27;;;5.10;42.40;;;;;;4980454;28;20480;-63
2023/01/10 03:33:13;;;;;;;5.40;1.37;;;5.00;41.90;;;;;;4981412;28;20480;-62
2023/01/10 03:35:52;;;;;;;4.10;1.30;;;5.00;41.90;;;;;;4980919;28;20461;-63
2023/01/10 03:38:26;;;;;;;4.40;1.40;;;5.00;42.20;;;;;;4982417;28;20877;-63
2023/01/10 03:40:59;;;;;;;4.10;1.10;;;5.00;42.30;;;;;;4983456;28;21006;-63
2023/01/10 03:46:24;;;;;;;4.00;1.20;;;5.00;42.30;;;;;;4967642;28;20508;-63
2023/01/10 03:48:52;;;;;;;3.90;0.87;;;5.00;42.50;;;;;;4969007;28;20457;-63
2023/01/10 03:51:20;;;;;;;3.63;0.97;;;5.10;42.30;;;;;;4965076;28;20489;-63
2023/01/10 03:53:47;;;;;;;3.80;0.90;;;5.10;42.10;;;;;;4961490;28;20481;-63
2023/01/10 03:56:14;;;;;;;3.43;0.67;;;5.10;42.00;;;;;;4968304;28;20494;-62
2023/01/10 03:58:41;;;;;;;3.50;0.70;;;5.10;42.00;;;;;;4966981;28;20957;-62
2023/01/10 04:01:08;;;;;;;3.40;0.77;;;5.10;42.10;;;;;;4969131;28;20488;-63
2023/01/10 04:03:35;;;;;;;3.93;0.80;;;5.10;42.00;;;;;;4968742;28;20480;-63
2023/01/10 04:06:02;;;;;;;3.60;0.77;;;5.10;42.10;;;;;;4965722;28;20763;-63
2023/01/10 04:08:31;;;;;;;5.30;0.90;;;5.10;42.10;;;;;;4969020;28;20470;-63
2023/01/10 04:10:57;;;;;;;3.60;0.60;;;5.00;41.90;;;;;;4967005;28;21243;-63
2023/01/10 04:13:24;;;;;;;3.87;0.73;;;5.00;41.90;;;;;;4967520;28;20479;-64
2023/01/10 04:15:51;;;;;;;5.63;0.90;;;5.00;41.90;;;;;;4967763;28;21167;-64
2023/01/10 04:18:18;;;;;;;3.70;0.70;;;5.00;41.80;;;;;;4965524;28;20472;-64
2023/01/10 04:20:45;;;;;;;4.07;0.93;;;5.00;41.80;;;;;;4967485;28;20492;-64
2023/01/10 04:23:11;;;;;;;3.50;0.60;;;5.00;41.60;;;;;;4962649;28;20461;-63
2023/01/10 04:25:40;;;;;;;3.53;0.60;;;5.00;41.70;;;;;;4964851;28;20466;-64
2023/01/10 04:28:06;;;;;;;3.57;0.70;;;5.00;41.70;;;;;;4961131;28;20470;-64
2023/01/10 04:30:33;;;;;;;3.30;0.50;;;5.00;41.60;;;;;;4963841;28;20490;-64
2023/01/10 04:33:00;;;;;;;3.40;0.60;;;5.00;41.80;;;;;;4964721;28;20489;-63
2023/01/10 04:35:26;;;;;;;3.50;0.70;;;5.00;41.80;;;;;;4964340;28;20470;-63
2023/01/10 04:37:53;;;;;;;3.77;0.60;;;5.10;41.90;;;;;;4967682;28;20476;-63
2023/01/10 04:40:22;;;;;;;4.27;1.00;;;5.10;41.80;;;;;;4964464;28;20477;-63
2023/01/10 04:42:50;;;;;;;3.30;0.60;;;5.10;41.60;;;;;;4966007;28;20540;-63
2023/01/10 04:45:19;;;;;;;3.90;0.70;;;5.20;41.30;;;;;;4962538;28;20839;-62
2023/01/10 04:47:49;;;;;;;3.60;0.80;;;5.20;41.40;;;;;;4957683;28;20472;-62
2023/01/10 04:50:17;;;;;;;3.83;0.80;;;5.20;41.50;;;;;;4962769;28;20891;-62
2023/01/10 04:52:44;;;;;;;3.57;0.73;;;5.20;41.50;;;;;;4963750;28;20461;-62
2023/01/10 04:55:11;;;;;;;7.40;0.90;;;5.30;41.60;;;;;;4963090;28;20493;-62
2023/01/10 04:57:37;;;;;;;4.63;1.20;;;5.30;41.90;;;;;;4966064;28;20485;-62
2023/01/10 05:00:07;;;;;;;3.83;1.00;;;5.30;42.20;;;;;;4963788;28;20479;-62
2023/01/10 05:02:34;;;;;;;4.27;0.90;;;5.30;42.70;;;;;;4962839;28;20492;-62
2023/01/10 05:05:01;;;;;;;4.37;1.10;;;5.30;42.00;;;;;;4957775;28;20454;-61
2023/01/10 05:07:27;;;;;;;6.73;1.30;;;5.30;41.70;;;;;;4957780;28;20458;-62
2023/01/10 05:09:54;;;;;;;4.47;1.23;;;5.30;41.70;;;;;;4961211;28;20466;-62
2023/01/10 05:12:21;;;;;;;4.77;1.10;;;5.30;41.90;;;;;;4967850;28;20980;-62
2023/01/10 05:14:47;;;;;;;5.50;1.10;;;5.30;41.90;;;;;;4965508;28;21027;-62
2023/01/10 05:17:15;;;;;;;6.77;1.93;;;5.20;42.10;;;;;;4968064;28;20457;-61
2023/01/10 05:19:42;;;;;;;5.03;1.40;;;5.20;42.10;;;;;;4966498;28;20461;-62
2023/01/10 05:22:09;;;;;;;7.20;1.90;;;5.20;42.40;;;;;;4966446;28;20555;-62
2023/01/10 05:24:36;;;;;;;7.70;2.40;;;5.20;42.30;;;;;;4967688;28;20469;-61
2023/01/10 05:27:03;;;;;;;7.10;1.97;;;5.20;42.40;;;;;;4968826;28;20853;-62
2023/01/10 05:29:29;;;;;;;7.63;1.63;;;5.30;42.40;;;;;;4968144;28;20815;-61
2023/01/10 05:31:56;;;;;;;9.67;2.33;;;5.20;42.10;;;;;;4968508;28;20496;-62
2023/01/10 05:34:25;;;;;;;5.07;2.10;;;5.30;42.10;;;;;;4965398;28;21036;-61
2023/01/10 05:36:51;;;;;;;4.90;1.83;;;5.30;42.00;;;;;;4963791;28;20465;-62
2023/01/10 05:39:18;;;;;;;5.13;2.47;;;5.40;41.60;;;;;;4967482;28;22368;-61
2023/01/10 05:41:45;;;;;;;5.80;2.30;;;5.40;41.70;;;;;;4967283;28;20496;-62
2023/01/10 05:44:12;;;;;;;7.97;2.60;;;5.40;41.60;;;;;;4968465;28;20464;-63
2023/01/10 05:46:38;;;;;;;9.57;2.23;;;5.50;41.40;;;;;;4968775;28;20465;-62
2023/01/10 05:49:05;;;;;;;5.57;1.70;;;5.50;40.70;;;;;;4968502;28;20469;-62
2023/01/10 05:51:33;;;;;;;9.83;2.60;;;5.50;40.60;;;;;;4965248;28;21371;-62
2023/01/10 05:54:00;;;;;;;10.50;1.97;;;5.50;40.30;;;;;;4967723;28;20485;-62
2023/01/10 05:56:28;;;;;;;5.33;2.10;;;5.50;40.00;;;;;;4967452;28;20462;-62
2023/01/10 05:58:55;;;;;;;5.93;2.00;;;5.50;40.20;;;;;;4968594;28;20454;-62
2023/01/10 06:01:21;;;;;;;5.47;1.67;;;5.50;40.10;;;;;;4967772;28;20470;-63
2023/01/10 06:03:48;;;;;;;7.13;2.00;;;5.50;39.90;;;;;;4968280;28;20458;-62
2023/01/10 06:06:15;;;;;;;5.90;1.77;;;5.50;39.80;;;;;;4965302;28;20484;-62
2023/01/10 06:08:43;;;;;;;5.27;1.93;;;5.50;39.90;;;;;;4967735;28;20462;-62
2023/01/10 06:11:10;;;;;;;7.03;1.90;;;5.50;39.90;;;;;;4961189;28;20489;-61
2023/01/10 06:13:36;;;;;;;5.17;1.37;;;5.50;40.00;;;;;;4968381;28;20486;-62
2023/01/10 06:16:03;;;;;;;5.30;1.40;;;5.60;39.90;;;;;;4968611;28;20492;-62
2023/01/10 06:18:30;;;;;;;4.27;1.30;;;5.60;39.70;;;;;;4968043;28;20466;-62
2023/01/10 06:20:57;;;;;;;3.97;1.30;;;5.60;39.60;;;;;;4966319;28;20497;-62
2023/01/10 06:23:24;;;;;;;4.27;0.87;;;5.60;39.50;;;;;;4967662;28;20949;-62
2023/01/10 06:25:52;;;;;;;5.17;1.13;;;5.60;39.40;;;;;;4968228;28;20457;-62
2023/01/10 06:28:19;;;;;;;3.80;0.80;;;5.50;39.60;;;;;;4963514;28;21048;-63
2023/01/10 06:30:46;;;;;;;3.53;0.70;;;5.50;39.70;;;;;;4964764;28;20472;-62
2023/01/10 06:33:13;;;;;;;6.30;1.07;;;5.50;39.80;;;;;;4966490;28;20557;-62
2023/01/10 06:35:40;;;;;;;3.70;0.97;;;5.50;40.10;;;;;;4968176;28;20450;-62
2023/01/10 06:38:07;;;;;;;3.90;0.83;;;5.40;40.20;;;;;;4968232;28;20949;-62
2023/01/10 06:40:34;;;;;;;4.30;1.20;;;5.50;40.30;;;;;;4968152;28;20486;-62
2023/01/10 06:43:02;;;;;;;3.60;0.80;;;5.40;40.30;;;;;;4966537;28;20469;-62
2023/01/10 06:45:29;;;;;;;4.40;0.70;;;5.40;41.10;;;;;;4967200;28;20465;-62
2023/01/10 06:47:55;;;;;;;3.60;0.80;;;5.40;40.30;;;;;;4968182;28;20535;-62
2023/01/10 06:50:23;;;;;;;4.37;1.13;;;5.40;40.40;;;;;;4968947;28;20485;-62
2023/01/10 06:52:56;;;;;;;4.60;0.70;;;5.40;40.40;;;;;;4966156;28;20955;-62
2023/01/10 06:55:23;;;;;;;4.67;1.10;;;5.40;40.50;;;;;;4968269;28;20516;-63
2023/01/10 06:57:54;;;;;;;4.20;1.00;;;5.40;40.50;;;;;;4966518;28;20493;-63
2023/01/10 07:00:23;;;;;;;4.40;1.40;;;5.40;40.30;;;;;;4966329;28;21063;-62
2023/01/10 07:02:50;;;;;;;4.33;1.23;;;5.40;40.40;;;;;;4967874;28;20461;-63
2023/01/10 07:05:17;;;;;;;5.87;1.60;;;5.30;40.30;;;;;;4968609;28;20464;-62
2023/01/10 07:07:44;;;;;;;5.00;1.70;;;5.40;40.30;;;;;;4967803;28;20473;-62
2023/01/10 07:10:11;;;;;;;5.90;1.60;;;5.40;40.10;;;;;;4967646;28;20619;-61
2023/01/10 07:12:38;;;;;;;6.63;1.63;;;5.40;40.00;;;;;;4967625;28;20470;-62
2023/01/10 07:15:06;;;;;;;5.50;1.70;;;5.30;39.90;;;;;;4966409;28;20988;-62
2023/01/10 07:17:34;;;;;;;9.10;1.60;;;5.40;39.30;;;;;;4968847;28;20458;-62
2023/01/10 07:20:01;;;;;;;5.53;1.70;;;5.40;39.30;;;;;;4970187;28;20476;-62
2023/01/10 07:22:27;;;;;;;8.30;1.90;;;5.40;39.00;;;;;;4970533;28;21127;-61
2023/01/10 07:24:54;;;;;;;5.10;1.40;;;5.30;38.80;;;;;;4972322;28;20466;-62
2023/01/10 07:27:21;;;;;;;8.70;2.03;;;5.30;39.00;;;;;;4971041;28;20544;-62
2023/01/10 07:29:47;;;;;;;6.13;1.63;;;5.40;38.40;;;;;;4971691;28;20462;-62
2023/01/10 07:32:14;;;;;;;8.50;2.27;;;5.40;38.20;;;;;;4970830;28;21039;-62
2023/01/10 07:34:42;;;;;;;6.93;1.90;;;5.40;38.30;;;;;;4971347;28;20477;-62
2023/01/10 07:37:09;;;;;;;9.10;2.60;;;5.40;38.00;;;;;;4969782;28;20465;-62
2023/01/10 07:39:36;;;;;;;8.20;1.57;;;5.40;38.00;;;;;;4970812;28;20465;-62
2023/01/10 07:42:02;;;;;;;7.57;1.97;;;5.40;37.80;;;;;;4971057;28;20488;-62
2023/01/10 07:44:29;;;;;;;5.93;1.37;;;5.50;37.70;;;;;;4969337;28;20464;-62
2023/01/10 07:46:56;;;;;;;12.10;2.10;;;5.50;37.50;;;;;;4970213;28;20469;-62
2023/01/10 07:49:23;;;;;;;11.60;2.40;;;5.50;37.70;;;;;;4969002;28;20457;-62
2023/01/10 07:51:51;;;;;;;9.17;1.90;;;5.50;37.80;;;;;;4970428;28;20481;-62
2023/01/10 07:54:17;;;;;;;9.80;2.30;;;5.50;38.00;;;;;;4970600;28;20486;-62
2023/01/10 07:56:46;;;;;;;7.13;2.10;;;5.40;38.00;;;;;;4970859;28;20546;-62
2023/01/10 07:59:12;;;;;;;10.53;3.23;;;5.50;38.20;;;;;;4971124;28;21115;-62
2023/01/10 08:01:39;;;;;;;7.70;1.87;;;5.50;38.30;;;;;;4969767;28;20550;-62
2023/01/10 08:04:06;;;;;;;6.83;2.00;;;5.50;38.30;;;;;;4970784;28;20454;-62
2023/01/10 08:06:33;;;;;;;7.70;2.37;;;5.60;38.20;;;;;;4969597;28;20465;-62
2023/01/10 08:09:02;;;;;;;8.70;2.23;;;5.60;38.10;;;;;;4970930;28;20994;-62
2023/01/10 08:11:29;;;;;;;11.53;3.03;;;5.60;38.00;;;;;;4965352;28;20489;-62
2023/01/10 08:13:56;;;;;;;7.60;1.90;;;5.60;38.10;;;;;;4970585;28;20462;-63
2023/01/10 08:16:23;;;;;;;12.93;4.10;;;5.60;38.10;;;;;;4970711;28;20461;-62
2023/01/10 08:18:49;;;;;;;9.70;2.93;;;5.60;38.10;;;;;;4967636;28;20469;-62
2023/01/10 08:21:16;;;;;;;9.77;2.70;;;5.60;38.00;;;;;;4967640;28;21098;-62
2023/01/10 08:23:43;;;;;;;15.00;2.60;;;5.60;38.00;;;;;;4970334;28;20457;-61
2023/01/10 08:26:11;;;;;;;6.90;2.23;;;5.60;38.00;;;;;;4966711;28;20457;-62
2023/01/10 08:28:38;;;;;;;8.20;1.77;;;5.60;38.00;;;;;;4964058;28;20458;-62
2023/01/10 08:31:06;;;;;;;8.10;2.50;;;5.70;38.10;;;;;;4968674;28;21012;-62
2023/01/10 08:33:32;;;;;;;14.13;2.30;;;5.70;38.70;;;;;;4968635;28;20464;-62
2023/01/10 08:35:59;;;;;;;10.57;2.27;;;5.70;38.00;;;;;;4969579;28;20472;-62
2023/01/10 08:38:26;;;;;;;8.70;2.23;;;5.70;38.30;;;;;;4968488;28;20462;-62
2023/01/10 08:40:56;;;;;;;7.70;2.00;;;5.80;37.60;;;;;;4969913;28;20489;-62
2023/01/10 08:43:24;;;;;;;11.23;2.40;;;5.80;37.50;;;;;;4969335;28;20529;-63
2023/01/10 08:45:51;;;;;;;12.97;2.80;;;5.80;37.40;;;;;;4970409;28;20458;-62
2023/01/10 08:48:18;;;;;;;4.90;1.80;;;5.80;37.00;;;;;;4969351;28;20466;-63
2023/01/10 08:50:44;;;;;;;8.83;2.70;;;5.90;36.80;;;;;;4970522;28;20968;-63
2023/01/10 08:53:12;;;;;;;6.13;1.73;;;5.90;36.70;;;;;;4967320;28;20466;-63
2023/01/10 08:55:39;;;;;;;7.43;1.80;;;5.90;36.60;;;;;;4969823;28;20573;-63
2023/01/10 08:58:06;;;;;;;8.57;1.77;;;6.00;36.80;;;;;;4962970;28;20463;-63
2023/01/10 09:00:34;;;;;;;10.70;2.47;;;6.00;36.80;;;;;;4969929;28;20478;-63
2023/01/10 09:03:00;;;;;;;7.50;1.93;;;6.00;36.60;;;;;;4994399;23;20494;-71
2023/01/10 09:05:27;;;;;;;6.90;2.30;;;6.00;36.50;;;;;;5004222;28;20464;-71
2023/01/10 09:07:58;;;;;;;8.27;2.30;;;6.00;36.60;;;;;;5000896;28;20491;-71
2023/01/10 09:10:25;;;;;;;8.23;2.90;;;6.10;36.90;;;;;;5007741;28;20486;-70
2023/01/10 09:12:55;;;;;;;5.83;1.50;;;6.10;36.70;;;;;;5005524;28;20480;-71
2023/01/10 09:15:23;;;;;;;8.47;2.10;;;6.10;36.80;;;;;;5002070;28;20484;-70
2023/01/10 09:17:53;;;;;;;9.43;2.43;;;6.10;36.70;;;;;;5005239;28;20464;-71
2023/01/10 09:20:20;;;;;;;8.93;2.57;;;6.10;36.60;;;;;;5004943;28;20754;-71
2023/01/10 09:22:47;;;;;;;5.73;1.83;;;6.10;36.60;;;;;;5004391;28;21003;-71
2023/01/10 09:25:14;;;;;;;6.27;1.80;;;6.10;36.80;;;;;;5005182;28;20464;-71
2023/01/10 09:27:40;;;;;;;6.33;2.07;;;6.20;36.50;;;;;;5003422;28;20468;-71
2023/01/10 09:30:08;;;;;;;7.20;2.23;;;6.20;36.40;;;;;;5000406;28;20452;-71
2023/01/10 09:32:35;;;;;;;8.13;2.60;;;6.30;36.60;;;;;;5007300;28;20467;-71
2023/01/10 09:35:03;;;;;;;7.73;2.20;;;6.30;36.30;;;;;;5003247;28;20495;-70
2023/01/10 09:37:32;;;;;;;7.30;2.10;;;6.40;36.10;;;;;;5005589;28;20460;-71
2023/01/10 09:39:59;;;;;;;6.83;2.23;;;6.40;35.90;;;;;;5003629;28;20476;-71
2023/01/10 09:42:39;;;;;;;7.20;2.03;;;6.50;35.40;;;;;;5005749;28;20491;-71
2023/01/10 09:45:15;;;;;;;6.60;1.80;;;6.50;35.60;;;;;;5003294;28;20467;-71
2023/01/10 09:47:53;;;;;;;7.23;1.80;;;6.50;35.50;;;;;;5007427;28;20556;-71
2023/01/10 09:50:27;;;;;;;5.70;2.33;;;6.50;35.30;;;;;;5005896;28;20467;-71
2023/01/10 09:52:58;;;;;;;5.13;1.70;;;6.50;35.50;;;;;;5004707;28;21042;-71
2023/01/10 09:55:28;;;;;;;8.00;1.77;;;6.50;35.60;;;;;;5001198;28;20494;-71
2023/01/10 09:57:59;;;;;;;5.30;1.53;;;6.50;35.20;;;;;;5003506;28;20988;-71
2023/01/10 10:00:36;;;;;;;8.33;1.87;;;6.50;35.20;;;;;;5003734;28;20498;-70
2023/01/10 10:03:10;;;;;;;8.30;2.20;;;6.60;35.30;;;;;;5004828;28;20515;-71
2023/01/10 10:05:38;;;;;;;6.30;2.53;;;6.70;35.00;;;;;;5004345;28;20963;-71
2023/01/10 10:08:15;;;;;;;9.40;1.90;;;6.80;35.30;;;;;;5006545;28;20482;-71
2023/01/10 10:10:49;;;;;;;5.37;1.57;;;6.80;34.60;;;;;;5005242;28;20460;-71
2023/01/10 10:13:21;;;;;;;6.90;1.67;;;6.90;34.40;;;;;;4999787;28;20475;-71
2023/01/10 10:15:53;;;;;;;6.93;1.80;;;6.90;34.40;;;;;;5003190;28;20483;-71
2023/01/10 10:18:29;;;;;;;6.67;2.03;;;6.90;34.60;;;;;;5003901;28;20482;-71
2023/01/10 10:21:06;;;;;;;8.53;1.80;;;6.80;34.80;;;;;;5004777;28;20456;-71
2023/01/10 10:23:48;;;;;;;7.30;1.83;;;6.90;34.70;;;;;;5006341;28;20483;-71
2023/01/10 10:26:21;;;;;;;5.70;1.50;;;6.90;34.70;;;;;;5005186;28;20459;-68
2023/01/10 10:29:14;;;;;;;6.43;2.23;;;7.10;34.80;;;;;;5003944;28;20542;-71
2023/01/10 10:31:57;;;;;;;8.00;2.23;;;7.50;35.10;;;;;;5000485;28;20471;-71
2023/01/10 10:34:31;;;;;;;6.70;2.37;;;7.90;33.40;;;;;;5002186;28;20464;-68
2023/01/10 10:37:04;;;;;;;7.73;2.00;;;8.00;32.00;;;;;;5004279;28;20482;-68
2023/01/10 10:39:35;;;;;;;6.13;1.80;;;8.00;31.50;;;;;;5001895;28;20529;-68
2023/01/10 10:42:04;;;;;;;6.33;1.93;;;8.10;31.40;;;;;;5007327;28;20463;-68
2023/01/10 10:44:39;;;;;;;11.50;2.10;;;8.30;30.30;;;;;;5001087;28;20471;-71
2023/01/10 10:47:14;;;;;;;6.47;1.67;;;8.40;30.20;;;;;;5004116;28;20963;-71
2023/01/10 10:49:45;;;;;;;9.20;1.90;;;8.80;28.70;;;;;;5002435;28;20455;-71
2023/01/10 10:52:21;;;;;;;9.33;1.90;;;9.10;28.10;;;;;;5002509;28;20481;-71
2023/01/10 10:54:48;;;;;;;9.73;2.33;;;9.30;26.60;;;;;;5006524;28;20545;-71
2023/01/10 10:57:16;;;;;;;8.10;2.47;;;9.40;26.80;;;;;;5009573;28;21231;-71
2023/01/10 10:59:46;;;;;;;8.43;1.87;;;9.50;26.20;;;;;;5008146;28;20487;-69
2023/01/10 11:02:23;;;;;;;6.93;1.90;;;9.60;25.70;;;;;;5005669;28;20494;-71
2023/01/10 11:04:52;;;;;;;10.77;3.70;;;9.50;24.90;;;;;;5006237;28;20463;-71
2023/01/10 11:07:21;;;;;;;7.53;2.70;;;9.40;24.70;;;;;;5008359;28;20482;-71
2023/01/10 11:09:52;;;;;;;9.70;4.43;;;9.30;25.60;;;;;;5010737;28;20468;-68
2023/01/10 11:12:25;;;;;;;7.07;1.30;;;9.40;25.30;;;;;;5010198;28;20483;-71
2023/01/10 11:14:52;;;;;;;6.47;2.10;;;9.60;25.50;;;;;;5009223;28;20459;-70
2023/01/10 11:17:21;;;;;;;6.40;2.20;;;10.20;25.20;;;;;;5005592;28;20467;-71
2023/01/10 11:19:59;;;;;;;6.57;2.13;;;10.60;22.90;;;;;;5010493;28;20463;-71
2023/01/10 11:22:30;;;;;;;5.77;2.10;;;10.50;22.60;;;;;;5006634;28;20857;-71
2023/01/10 11:24:59;;;;;;;5.90;2.27;;;10.30;22.60;;;;;;5008686;28;20466;-72
2023/01/10 11:27:29;;;;;;;6.60;2.03;;;10.00;22.70;;;;;;5009202;28;20463;-71
2023/01/10 11:29:59;;;;;;;8.07;2.00;;;9.90;23.20;;;;;;5010324;28;20464;-71
2023/01/10 11:32:33;;;;;;;6.50;1.90;;;9.70;23.10;;;;;;5004256;28;20491;-71
2023/01/10 11:35:02;;;;;;;7.03;2.00;;;9.50;24.30;;;;;;5006181;28;20470;-71
2023/01/10 11:37:32;;;;;;;6.40;1.90;;;9.40;24.60;;;;;;5005741;28;20479;-71
2023/01/10 11:40:22;;;;;;;11.77;2.20;;;9.20;25.60;;;;;;5009780;28;20459;-68
2023/01/10 11:42:49;;;;;;;5.97;2.00;;;9.10;26.10;;;;;;5006332;28;20519;-70
2023/01/10 11:45:24;;;;;;;5.50;2.00;;;8.90;25.30;;;;;;5010239;28;20947;-68
2023/01/10 11:47:54;;;;;;;5.47;1.97;;;8.80;26.50;;;;;;5001828;28;20830;-68
2023/01/10 11:50:23;;;;;;;6.10;1.83;;;8.70;27.30;;;;;;5010012;28;20456;-68
2023/01/10 11:52:52;;;;;;;6.63;1.90;;;8.70;27.50;;;;;;5006961;28;20475;-68
2023/01/10 11:55:20;;;;;;;8.83;2.20;;;8.70;27.50;;;;;;5003629;28;20477;-71
2023/01/10 11:57:56;;;;;;;6.60;2.20;;;8.70;27.70;;;;;;5006842;28;20463;-71
2023/01/10 12:00:31;;;;;;;6.70;2.07;;;8.80;27.70;;;;;;5006990;28;20462;-68
2023/01/10 12:03:00;;;;;;;6.97;2.17;;;8.90;27.10;;;;;;5006756;28;20483;-70
2023/01/10 12:05:27;;;;;;;8.03;1.93;;;8.90;26.50;;;;;;5005772;28;20521;-71
2023/01/10 12:07:56;;;;;;;5.60;1.70;;;8.80;25.50;;;;;;5006367;28;20463;-68
2023/01/10 12:10:25;;;;;;;8.90;1.77;;;8.80;25.50;;;;;;5004576;28;20456;-68
2023/01/10 12:12:57;;;;;;;5.33;1.27;;;8.70;25.10;;;;;;5003149;28;20481;-67
2023/01/10 12:15:26;;;;;;;4.90;1.50;;;8.70;24.30;;;;;;5006556;28;20483;-68
2023/01/10 12:17:55;;;;;;;7.33;1.73;;;8.70;24.50;;;;;;5006561;28;20456;-68
2023/01/10 12:20:22;;;;;;;5.90;1.90;;;8.60;24.80;;;;;;5000538;28;20464;-67
2023/01/10 12:22:55;;;;;;;6.90;1.83;;;8.60;24.20;;;;;;5009058;28;20487;-68
2023/01/10 12:25:30;;;;;;;8.10;1.70;;;8.60;24.60;;;;;;5007191;28;20985;-70
2023/01/10 12:27:58;;;;;;;5.57;1.40;;;8.60;24.60;;;;;;5006991;28;20476;-68
2023/01/10 12:30:31;;;;;;;5.90;2.00;;;8.70;24.50;;;;;;5006754;28;20478;-68
2023/01/10 12:33:02;;;;;;;7.10;1.80;;;8.70;24.10;;;;;;5011547;28;20486;-68
2023/01/10 12:35:38;;;;;;;6.53;1.80;;;8.70;24.10;;;;;;5004348;28;21142;-68
2023/01/10 12:38:19;;;;;;;4.87;1.57;;;8.70;23.80;;;;;;5005403;28;20467;-68
2023/01/10 12:40:53;;;;;;;5.80;2.03;;;8.60;23.10;;;;;;5001580;28;20466;-71
2023/01/10 12:46:16;;;;;;;6.27;1.30;;;8.50;21.70;;;;;;5005768;28;20452;-71
2023/01/10 12:48:49;;;;;;;5.97;1.70;;;8.50;22.00;;;;;;5006752;28;20862;-70
2023/01/10 12:51:21;;;;;;;6.87;1.87;;;8.40;22.50;;;;;;5004868;28;20456;-70
2023/01/10 12:53:52;;;;;;;6.70;1.67;;;8.40;23.00;;;;;;5006731;28;20484;-70
2023/01/10 12:56:20;;;;;;;7.00;1.27;;;8.30;23.00;;;;;;5008306;28;20479;-70
2023/01/10 12:58:50;;;;;;;7.37;1.50;;;8.30;23.30;;;;;;5005223;28;20471;-70
2023/01/10 13:01:22;;;;;;;7.87;1.90;;;8.40;23.50;;;;;;5005617;28;21010;-70
2023/01/10 13:03:54;;;;;;;4.93;1.60;;;8.40;23.80;;;;;;5005315;28;20486;-70
2023/01/10 13:06:25;;;;;;;10.17;2.13;;;8.50;23.60;;;;;;5008705;28;20452;-70
2023/01/10 13:08:53;;;;;;;10.03;3.00;;;8.60;23.20;;;;;;5005876;28;20467;-70
2023/01/10 13:11:25;;;;;;;11.63;1.70;;;8.70;22.60;;;;;;5003276;28;20464;-69
2023/01/10 13:13:56;;;;;;;6.57;1.80;;;8.70;24.60;;;;;;5003389;28;20480;-70
2023/01/10 13:16:30;;;;;;;6.33;2.23;;;8.80;23.80;;;;;;5005856;28;20488;-71
2023/01/10 13:19:22;;;;;;;7.30;2.70;;;8.90;23.20;;;;;;5007328;28;20468;-70
2023/01/10 13:21:48;;;;;;;7.30;3.17;;;9.00;22.60;;;;;;5005249;28;20859;-70
2023/01/10 13:24:21;;;;;;;5.53;2.13;;;9.10;21.20;;;;;;5007803;28;20452;-70